createdAt,value
2018-08-10T00:01:22.347Z,15.90
2018-08-10T00:03:50.122Z,15.70
2018-08-10T00:06:17.939Z,16.00
2018-08-10T00:08:45.697Z,15.70
2018-08-10T00:11:13.419Z,15.80
2018-08-10T00:13:41.188Z,15.60
2018-08-10T00:16:08.999Z,15.60
2018-08-10T00:18:36.800Z,16.10
2018-08-10T00:21:04.526Z,16.00
2018-08-10T00:23:32.263Z,16.10
2018-08-10T00:25:59.998Z,16.00
2018-08-10T00:28:27.759Z,16.20
2018-08-10T00:30:55.535Z,16.20
2018-08-10T00:33:23.315Z,16.10
2018-08-10T00:35:51.110Z,16.10
2018-08-10T00:38:18.859Z,16.10
2018-08-10T00:40:46.696Z,16.00
2018-08-10T00:43:14.463Z,16.10
2018-08-10T00:45:42.322Z,16.10
2018-08-10T00:48:10.032Z,16.20
2018-08-10T00:50:37.798Z,15.90
2018-08-10T00:53:05.579Z,16.00
2018-08-10T00:55:33.286Z,16.20
2018-08-10T00:58:00.999Z,16.00
2018-08-10T01:00:28.678Z,16.10
2018-08-10T01:02:56.478Z,16.10
2018-08-10T01:05:24.306Z,16.20
2018-08-10T01:07:52.106Z,16.10
2018-08-10T01:10:20.451Z,16.10
2018-08-10T01:12:48.279Z,16.20
2018-08-10T01:15:16.978Z,16.20
2018-08-10T01:17:45.323Z,16.00
2018-08-10T01:20:16.749Z,16.20
2018-08-10T01:22:50.262Z,16.00
2018-08-10T01:25:19.054Z,16.60
2018-08-10T01:27:52.551Z,16.50
2018-08-10T01:30:20.670Z,16.10
2018-08-10T01:32:48.507Z,16.10
2018-08-10T01:35:16.303Z,16.10
2018-08-10T01:37:44.136Z,16.20
2018-08-10T01:40:11.912Z,16.10
2018-08-10T01:42:39.651Z,16.10
2018-08-10T01:45:08.459Z,16.00
2018-08-10T01:47:36.287Z,16.10
2018-08-10T01:50:04.707Z,15.90
2018-08-10T01:52:32.452Z,16.10
2018-08-10T01:55:00.224Z,16.00
2018-08-10T01:57:27.962Z,15.90
2018-08-10T01:59:55.700Z,16.10
2018-08-10T02:02:23.470Z,15.80
2018-08-10T02:04:51.283Z,15.90
2018-08-10T02:07:19.021Z,16.00
2018-08-10T02:09:46.751Z,15.90
2018-08-10T02:12:14.531Z,16.10
2018-08-10T02:14:42.313Z,16.00
2018-08-10T02:17:10.081Z,16.00
2018-08-10T02:19:37.835Z,15.90
2018-08-10T02:22:05.593Z,15.80
2018-08-10T02:24:33.377Z,15.90
2018-08-10T02:27:01.209Z,16.00
2018-08-10T02:29:28.928Z,15.60
2018-08-10T02:31:56.727Z,15.90
2018-08-10T02:34:24.501Z,16.00
2018-08-10T02:36:52.223Z,15.50
2018-08-10T02:39:19.931Z,16.00
2018-08-10T02:41:47.712Z,15.60
2018-08-10T02:44:15.466Z,15.40
2018-08-10T02:46:43.278Z,15.50
2018-08-10T02:49:11.125Z,15.60
2018-08-10T02:51:38.830Z,15.80
2018-08-10T02:54:06.579Z,15.60
2018-08-10T02:56:34.350Z,15.40
2018-08-10T02:59:02.079Z,15.50
2018-08-10T03:01:30.184Z,15.00
2018-08-10T03:03:57.983Z,15.50
2018-08-10T03:06:25.686Z,15.40
2018-08-10T03:08:53.429Z,15.50
2018-08-10T03:11:21.211Z,15.50
2018-08-10T03:13:49.030Z,15.40
2018-08-10T03:16:16.740Z,15.60
2018-08-10T03:18:44.520Z,15.90
2018-08-10T03:21:12.284Z,15.80
2018-08-10T03:23:40.028Z,15.90
2018-08-10T03:26:07.755Z,15.50
2018-08-10T03:28:35.552Z,15.50
2018-08-10T03:31:03.347Z,15.40
2018-08-10T03:33:31.615Z,15.30
2018-08-10T03:35:59.389Z,15.30
2018-08-10T03:38:27.172Z,15.50
2018-08-10T03:40:54.920Z,15.40
2018-08-10T03:43:22.720Z,15.60
2018-08-10T03:45:50.495Z,15.50
2018-08-10T03:48:18.231Z,15.40
2018-08-10T03:50:45.972Z,15.00
2018-08-10T03:53:13.743Z,14.90
2018-08-10T03:55:41.507Z,15.50
2018-08-10T03:58:09.256Z,15.40
2018-08-10T04:00:36.975Z,15.20
2018-08-10T04:03:04.798Z,14.90
2018-08-10T04:05:32.583Z,15.40
2018-08-10T04:08:00.347Z,15.50
2018-08-10T04:10:28.186Z,15.00
2018-08-10T04:12:56.076Z,15.40
2018-08-10T04:15:23.902Z,15.20
2018-08-10T04:17:51.679Z,15.40
2018-08-10T04:20:19.491Z,15.50
2018-08-10T04:22:47.278Z,15.40
2018-08-10T04:25:15.071Z,15.50
2018-08-10T04:27:42.824Z,15.50
2018-08-10T04:30:11.067Z,15.50
2018-08-10T04:32:39.106Z,15.40
2018-08-10T04:35:07.043Z,15.30
2018-08-10T04:37:34.839Z,15.20
2018-08-10T04:40:02.699Z,15.30
2018-08-10T04:42:30.467Z,15.50
2018-08-10T04:44:58.288Z,15.50
2018-08-10T04:47:26.072Z,15.40
2018-08-10T04:49:53.882Z,15.60
2018-08-10T04:52:21.680Z,15.40
2018-08-10T04:54:49.459Z,15.50
2018-08-10T04:57:17.223Z,15.40
2018-08-10T04:59:44.964Z,15.70
2018-08-10T05:02:12.809Z,15.40
2018-08-10T05:04:40.576Z,15.50
2018-08-10T05:07:08.423Z,15.90
2018-08-10T05:09:36.200Z,15.90
2018-08-10T05:12:04.039Z,15.80
2018-08-10T05:14:31.815Z,16.10
2018-08-10T05:16:59.631Z,15.90
2018-08-10T05:19:27.471Z,15.90
2018-08-10T05:21:55.234Z,16.00
2018-08-10T05:24:22.979Z,15.90
2018-08-10T05:26:50.756Z,16.00
2018-08-10T05:29:18.533Z,16.10
2018-08-10T05:31:46.359Z,15.80
2018-08-10T05:34:14.139Z,16.20
2018-08-10T05:36:41.914Z,16.10
2018-08-10T05:39:10.821Z,16.10
2018-08-10T05:41:38.629Z,16.00
2018-08-10T05:44:06.424Z,16.10
2018-08-10T05:46:34.159Z,16.10
2018-08-10T05:49:01.922Z,16.30
2018-08-10T05:51:29.668Z,16.40
2018-08-10T05:53:57.480Z,16.50
2018-08-10T05:56:25.188Z,16.40
2018-08-10T05:58:52.941Z,16.30
2018-08-10T06:01:20.688Z,16.50
2018-08-10T06:03:48.564Z,16.70
2018-08-10T06:06:16.223Z,16.50
2018-08-10T06:08:43.943Z,16.80
2018-08-10T06:11:11.673Z,16.70
2018-08-10T06:13:39.399Z,16.70
2018-08-10T06:16:07.156Z,16.70
2018-08-10T06:18:34.894Z,16.80
2018-08-10T06:21:02.615Z,16.70
2018-08-10T06:23:30.361Z,16.80
2018-08-10T06:25:58.090Z,16.80
2018-08-10T06:28:25.850Z,17.10
2018-08-10T06:30:53.652Z,17.20
2018-08-10T06:33:21.375Z,16.80
2018-08-10T06:35:49.126Z,17.00
2018-08-10T06:38:16.882Z,16.90
2018-08-10T06:40:44.635Z,17.20
2018-08-10T06:43:12.387Z,17.20
2018-08-10T06:45:40.183Z,17.40
2018-08-10T06:48:07.907Z,17.40
2018-08-10T06:50:35.647Z,17.60
2018-08-10T06:53:03.464Z,17.60
2018-08-10T06:55:31.264Z,17.60
2018-08-10T06:57:58.998Z,17.90
2018-08-10T07:00:26.823Z,18.10
2018-08-10T07:02:54.519Z,18.30
2018-08-10T07:05:22.320Z,17.90
2018-08-10T07:07:50.071Z,18.10
2018-08-10T07:10:17.848Z,18.30
2018-08-10T07:12:45.573Z,18.20
2018-08-10T07:15:13.305Z,18.30
2018-08-10T07:17:41.070Z,18.40
2018-08-10T07:20:08.890Z,18.10
2018-08-10T07:22:36.707Z,18.60
2018-08-10T07:25:05.010Z,19.10
2018-08-10T07:27:32.787Z,18.80
2018-08-10T07:30:00.503Z,19.30
2018-08-10T07:32:28.271Z,19.00
2018-08-10T07:34:55.993Z,18.90
2018-08-10T07:37:23.848Z,19.10
2018-08-10T07:39:51.543Z,19.20
2018-08-10T07:42:19.360Z,19.60
2018-08-10T07:44:47.099Z,19.40
2018-08-10T07:47:14.876Z,19.10
2018-08-10T07:49:42.695Z,19.20
2018-08-10T07:52:10.487Z,19.30
2018-08-10T07:54:38.219Z,19.20
2018-08-10T07:57:05.984Z,19.20
2018-08-10T07:59:33.764Z,19.10
2018-08-10T08:02:01.592Z,19.30
2018-08-10T08:04:29.513Z,19.30
2018-08-10T08:06:57.378Z,19.40
2018-08-10T08:09:25.151Z,19.80
2018-08-10T08:11:52.948Z,19.70
2018-08-10T08:14:20.691Z,20.20
2018-08-10T08:16:48.533Z,20.30
2018-08-10T08:19:16.333Z,20.30
2018-08-10T08:22:15.368Z,20.60
2018-08-10T08:24:43.391Z,21.00
2018-08-10T08:27:12.390Z,21.40
2018-08-10T08:29:40.111Z,21.60
2018-08-10T08:32:07.948Z,22.30
2018-08-10T08:34:35.735Z,22.90
2018-08-10T08:37:04.260Z,23.80
2018-08-10T08:40:37.318Z,25.00
2018-08-10T08:43:05.107Z,25.60
2018-08-10T08:45:43.346Z,25.80
2018-08-10T08:48:11.133Z,26.10
2018-08-10T08:50:40.770Z,25.90
2018-08-10T08:53:08.536Z,24.80
2018-08-10T08:55:38.899Z,24.50
2018-08-10T08:58:07.275Z,23.70
2018-08-10T09:00:35.423Z,24.70
2018-08-10T09:03:03.246Z,24.00
2018-08-10T09:05:31.019Z,24.10
2018-08-10T09:07:58.812Z,24.20
2018-08-10T09:10:26.568Z,24.40
2018-08-10T09:12:54.371Z,24.70
2018-08-10T09:15:22.848Z,24.80
2018-08-10T09:17:50.610Z,25.30
2018-08-10T09:20:18.385Z,25.60
2018-08-10T09:22:46.195Z,25.40
2018-08-10T09:25:16.455Z,25.20
2018-08-10T09:27:44.248Z,24.80
2018-08-10T09:30:14.215Z,25.00
2018-08-10T09:32:42.343Z,24.80
2018-08-10T09:35:11.125Z,24.50
2018-08-10T09:37:38.958Z,25.20
2018-08-10T09:40:11.645Z,26.20
2018-08-10T09:42:39.511Z,26.40
2018-08-10T09:45:08.293Z,25.20
2018-08-10T09:47:36.085Z,25.20
2018-08-10T09:50:04.785Z,25.60
2018-08-10T09:52:32.621Z,26.30
2018-08-10T09:55:18.456Z,26.60
2018-08-10T09:57:46.590Z,26.50
2018-08-10T10:00:20.043Z,25.00
2018-08-10T10:02:53.818Z,25.40
2018-08-10T10:05:23.134Z,26.50
2018-08-10T10:07:51.083Z,25.70
2018-08-10T10:10:18.903Z,25.30
2018-08-10T10:12:46.725Z,23.50
2018-08-10T10:15:14.651Z,23.20
2018-08-10T10:17:42.449Z,24.70
2018-08-10T10:20:10.295Z,26.70
2018-08-10T10:22:38.139Z,27.40
2018-08-10T10:25:06.054Z,27.50
2018-08-10T10:27:33.975Z,27.80
2018-08-10T10:30:01.895Z,28.10
2018-08-10T10:32:30.058Z,29.00
2018-08-10T10:34:57.827Z,28.70
2018-08-10T10:37:25.571Z,26.80
2018-08-10T10:39:53.512Z,25.00
2018-08-10T10:42:21.447Z,25.40
2018-08-10T10:44:49.712Z,26.90
2018-08-10T10:47:17.538Z,28.00
2018-08-10T10:49:45.392Z,29.10
2018-08-10T10:52:13.156Z,29.60
2018-08-10T10:54:40.907Z,29.90
2018-08-10T10:57:08.715Z,29.10
2018-08-10T10:59:36.499Z,29.80
2018-08-10T11:02:04.286Z,29.70
2018-08-10T11:04:32.080Z,31.10
2018-08-10T11:06:59.848Z,30.20
2018-08-10T11:09:27.572Z,30.30
2018-08-10T11:11:55.348Z,28.20
2018-08-10T11:14:23.038Z,27.60
2018-08-10T11:16:50.814Z,27.90
2018-08-10T11:19:18.571Z,27.70
2018-08-10T11:21:46.324Z,28.20
2018-08-10T11:24:14.076Z,28.90
2018-08-10T11:26:41.927Z,28.40
2018-08-10T11:29:09.640Z,27.70
2018-08-10T11:31:37.408Z,28.20
2018-08-10T11:34:05.299Z,27.80
2018-08-10T11:36:33.048Z,25.30
2018-08-10T11:39:00.911Z,24.50
2018-08-10T11:41:28.707Z,25.30
2018-08-10T11:43:56.430Z,25.30
2018-08-10T11:46:24.214Z,25.30
2018-08-10T11:48:56.400Z,24.20
2018-08-10T11:51:24.384Z,24.60
2018-08-10T11:53:52.423Z,25.70
2018-08-10T11:56:20.329Z,27.50
2018-08-10T11:58:48.087Z,28.00
2018-08-10T12:01:15.851Z,26.50
2018-08-10T12:03:44.317Z,26.60
2018-08-10T12:06:12.042Z,28.20
2018-08-10T12:08:39.782Z,29.80
2018-08-10T12:11:07.495Z,29.90
2018-08-10T12:13:35.216Z,30.40
2018-08-10T12:16:03.059Z,29.40
2018-08-10T12:18:30.767Z,28.00
2018-08-10T12:20:58.567Z,27.00
2018-08-10T12:23:26.347Z,28.00
2018-08-10T12:25:54.097Z,27.50
2018-08-10T12:28:21.872Z,26.70
2018-08-10T12:30:49.670Z,27.30
2018-08-10T12:33:17.465Z,29.40
2018-08-10T12:35:45.215Z,30.00
2018-08-10T12:38:12.963Z,29.60
2018-08-10T12:40:40.762Z,29.10
2018-08-10T12:43:08.762Z,27.50
2018-08-10T12:45:36.507Z,26.60
2018-08-10T12:48:05.784Z,26.90
2018-08-10T12:50:33.671Z,26.00
2018-08-10T12:53:01.476Z,25.40
2018-08-10T12:55:29.300Z,25.60
2018-08-10T12:57:57.101Z,27.00
2018-08-10T13:00:25.008Z,28.10
2018-08-10T13:02:52.853Z,27.90
2018-08-10T13:05:20.620Z,28.20
2018-08-10T13:07:48.443Z,28.10
2018-08-10T13:10:16.232Z,27.50
2018-08-10T13:12:43.974Z,27.40
2018-08-10T13:15:12.654Z,27.30
2018-08-10T13:17:40.547Z,26.60
2018-08-10T13:20:10.587Z,25.80
2018-08-10T13:22:38.480Z,25.50
2018-08-10T13:25:07.114Z,26.80
2018-08-10T13:27:34.936Z,28.10
2018-08-10T13:30:02.782Z,27.50
2018-08-10T13:32:30.571Z,27.20
2018-08-10T13:34:58.326Z,27.70
2018-08-10T13:37:26.144Z,28.10
2018-08-10T13:39:53.990Z,27.60
2018-08-10T13:42:21.727Z,26.00
2018-08-10T13:44:49.538Z,25.70
2018-08-10T13:47:17.283Z,25.90
2018-08-10T13:49:45.082Z,25.40
2018-08-10T13:52:12.852Z,25.20
2018-08-10T13:54:40.629Z,25.20
2018-08-10T13:57:08.449Z,26.30
2018-08-10T13:59:36.261Z,27.80
2018-08-10T14:02:04.075Z,28.50
2018-08-10T14:04:31.968Z,28.50
2018-08-10T14:06:59.784Z,28.10
2018-08-10T14:09:27.613Z,27.80
2018-08-10T14:12:36.974Z,27.20
2018-08-10T14:15:05.267Z,27.50
2018-08-10T14:17:33.241Z,27.00
2018-08-10T14:20:00.990Z,27.60
2018-08-10T14:22:28.711Z,27.70
2018-08-10T14:24:56.538Z,28.10
2018-08-10T14:27:24.365Z,28.90
2018-08-10T14:29:52.145Z,27.40
2018-08-10T14:32:19.961Z,26.80
2018-08-10T14:34:47.757Z,27.30
2018-08-10T14:37:15.584Z,26.90
2018-08-10T14:39:43.338Z,27.20
2018-08-10T14:42:11.071Z,27.30
2018-08-10T14:44:38.782Z,27.50
2018-08-10T14:47:06.527Z,27.60
2018-08-10T14:49:34.316Z,27.20
2018-08-10T14:52:02.163Z,27.20
2018-08-10T14:54:29.928Z,26.90
2018-08-10T14:56:57.694Z,26.60
2018-08-10T14:59:25.520Z,26.40
2018-08-10T15:01:53.338Z,25.80
2018-08-10T15:04:21.128Z,25.20
2018-08-10T15:06:48.964Z,25.00
2018-08-10T15:09:16.704Z,24.60
2018-08-10T15:11:44.551Z,24.60
2018-08-10T15:14:12.316Z,24.50
2018-08-10T15:16:40.655Z,25.00
2018-08-10T15:19:08.424Z,25.10
2018-08-10T15:21:57.979Z,25.00
2018-08-10T15:24:26.154Z,24.20
2018-08-10T15:26:53.972Z,24.30
2018-08-10T15:29:21.771Z,24.10
2018-08-10T15:31:49.641Z,24.20
2018-08-10T15:34:17.406Z,24.30
2018-08-10T15:36:45.338Z,23.70
2018-08-10T15:39:13.067Z,24.30
2018-08-10T15:41:40.929Z,24.50
2018-08-10T15:44:08.764Z,24.70
2018-08-10T15:46:36.555Z,25.10
2018-08-10T15:49:04.623Z,25.00
2018-08-10T15:51:32.443Z,24.50
2018-08-10T15:54:00.183Z,24.00
2018-08-10T15:56:27.961Z,24.00
2018-08-10T15:58:55.859Z,24.00
2018-08-10T16:01:23.644Z,23.90
2018-08-10T16:03:51.409Z,24.00
2018-08-10T16:06:19.246Z,24.00
2018-08-10T16:08:47.015Z,24.10
2018-08-10T16:11:14.874Z,23.70
2018-08-10T16:13:42.705Z,24.00
2018-08-10T16:16:10.515Z,23.60
2018-08-10T16:18:38.259Z,24.00
2018-08-10T16:21:06.068Z,24.00
2018-08-10T16:23:33.791Z,23.80
2018-08-10T16:26:01.588Z,24.00
2018-08-10T16:28:29.433Z,23.80
2018-08-10T16:30:57.279Z,23.70
2018-08-10T16:33:25.067Z,23.60
2018-08-10T16:35:52.852Z,23.40
2018-08-10T16:38:20.623Z,23.60
2018-08-10T16:40:48.459Z,23.80
2018-08-10T16:43:16.319Z,23.80
2018-08-10T16:45:44.143Z,23.70
2018-08-10T16:48:12.009Z,23.60
2018-08-10T16:50:39.816Z,23.70
2018-08-10T16:53:07.626Z,23.80
2018-08-10T16:55:35.351Z,23.70
2018-08-10T16:58:03.231Z,23.70
2018-08-10T17:00:31.138Z,23.50
2018-08-10T17:02:58.931Z,23.30
2018-08-10T17:05:26.693Z,23.90
2018-08-10T17:07:54.519Z,23.70
2018-08-10T17:10:22.320Z,23.80
2018-08-10T17:12:50.108Z,23.30
2018-08-10T17:15:19.018Z,23.20
2018-08-10T17:17:47.542Z,23.70
2018-08-10T17:20:16.127Z,23.50
2018-08-10T17:22:44.140Z,23.10
2018-08-10T17:25:13.959Z,23.40
2018-08-10T17:27:41.793Z,23.10
2018-08-10T17:30:12.003Z,23.60
2018-08-10T17:32:39.831Z,23.00
2018-08-10T17:35:08.917Z,23.00
2018-08-10T17:37:36.826Z,23.00
2018-08-10T17:40:05.802Z,23.00
2018-08-10T17:42:33.775Z,23.10
2018-08-10T17:45:01.632Z,23.00
2018-08-10T17:47:29.472Z,22.90
2018-08-10T17:49:57.334Z,22.70
2018-08-10T17:52:25.132Z,23.00
2018-08-10T17:54:52.897Z,22.60
2018-08-10T17:57:20.683Z,22.70
2018-08-10T17:59:48.528Z,22.70
2018-08-10T18:02:16.351Z,22.60
2018-08-10T18:04:44.202Z,22.30
2018-08-10T18:07:11.952Z,22.60
2018-08-10T18:09:39.848Z,22.70
2018-08-10T18:12:07.666Z,22.20
2018-08-10T18:14:35.573Z,22.20
2018-08-10T18:17:03.418Z,22.20
2018-08-10T18:19:31.210Z,21.70
2018-08-10T18:21:59.077Z,22.30
2018-08-10T18:24:26.858Z,22.20
2018-08-10T18:26:54.682Z,22.20
2018-08-10T18:29:22.520Z,21.90
2018-08-10T18:31:50.310Z,22.00
2018-08-10T18:34:18.194Z,21.90
2018-08-10T18:36:45.980Z,22.10
2018-08-10T18:39:13.924Z,21.70
2018-08-10T18:41:42.076Z,21.60
2018-08-10T18:44:10.239Z,21.80
2018-08-10T18:46:38.814Z,21.90
2018-08-10T18:49:06.795Z,21.70
2018-08-10T18:51:34.715Z,21.70
2018-08-10T18:54:02.952Z,21.70
2018-08-10T18:56:30.843Z,21.60
2018-08-10T18:58:58.648Z,21.60
2018-08-10T19:01:26.528Z,21.50
2018-08-10T19:03:54.400Z,21.10
2018-08-10T19:06:22.240Z,21.30
2018-08-10T19:08:50.032Z,21.40
2018-08-10T19:11:17.900Z,21.20
2018-08-10T19:13:45.753Z,21.00
2018-08-10T19:16:13.657Z,21.30
2018-08-10T19:18:41.507Z,21.00
2018-08-10T19:21:09.348Z,21.30
2018-08-10T19:23:37.158Z,21.30
2018-08-10T19:26:05.113Z,21.20
2018-08-10T19:28:32.809Z,21.20
2018-08-10T19:31:00.571Z,21.00
2018-08-10T19:33:28.302Z,21.20
2018-08-10T19:35:56.081Z,21.20
2018-08-10T19:38:23.778Z,21.20
2018-08-10T19:40:51.511Z,20.90
2018-08-10T19:43:19.207Z,21.20
2018-08-10T19:45:46.930Z,20.90
2018-08-10T19:48:14.685Z,21.10
2018-08-10T19:50:42.456Z,20.90
2018-08-10T19:53:10.235Z,20.90
2018-08-10T19:55:38.138Z,20.80
2018-08-10T19:58:06.326Z,21.10
2018-08-10T20:00:34.136Z,20.60
2018-08-10T20:03:01.934Z,20.50
2018-08-10T20:05:29.687Z,20.80
2018-08-10T20:07:57.451Z,20.90
2018-08-10T20:10:25.319Z,20.70
2018-08-10T20:12:53.143Z,20.70
2018-08-10T20:15:21.145Z,20.50
2018-08-10T20:17:48.820Z,20.70
2018-08-10T20:20:17.849Z,20.90
2018-08-10T20:22:46.039Z,20.80
2018-08-10T20:25:14.415Z,20.50
2018-08-10T20:27:42.146Z,20.30
2018-08-10T20:30:13.926Z,20.60
2018-08-10T20:32:41.843Z,20.40
2018-08-10T20:35:11.448Z,20.40
2018-08-10T20:37:40.224Z,20.30
2018-08-10T20:40:09.519Z,20.30
2018-08-10T20:42:37.306Z,20.40
2018-08-10T20:45:05.795Z,20.30
2018-08-10T20:47:33.623Z,19.70
2018-08-10T20:50:01.416Z,20.20
2018-08-10T20:52:29.215Z,20.30
2018-08-10T20:54:57.199Z,20.20
2018-08-10T20:57:25.026Z,20.30
2018-08-10T20:59:52.798Z,20.30
2018-08-10T21:02:20.582Z,20.00
2018-08-10T21:04:48.359Z,20.20
2018-08-10T21:07:16.150Z,20.20
2018-08-10T21:09:43.923Z,20.40
2018-08-10T21:12:11.783Z,20.00
2018-08-10T21:14:39.522Z,20.20
2018-08-10T21:17:07.359Z,19.80
2018-08-10T21:19:35.152Z,20.10
2018-08-10T21:22:03.045Z,19.60
2018-08-10T21:24:30.816Z,19.70
2018-08-10T21:26:58.619Z,19.40
2018-08-10T21:29:26.390Z,19.60
2018-08-10T21:31:54.178Z,19.60
2018-08-10T21:34:21.935Z,19.60
2018-08-10T21:36:49.692Z,19.40
2018-08-10T21:39:17.412Z,19.70
2018-08-10T21:41:45.194Z,19.40
2018-08-10T21:44:12.903Z,19.50
2018-08-10T21:46:40.759Z,19.70
2018-08-10T21:49:08.508Z,19.50
2018-08-10T21:51:36.280Z,19.20
2018-08-10T21:54:04.098Z,19.20
2018-08-10T21:56:31.902Z,19.30
2018-08-10T21:58:59.739Z,19.40
2018-08-10T22:01:27.563Z,19.40
2018-08-10T22:03:55.354Z,19.00
2018-08-10T22:06:23.136Z,19.00
2018-08-10T22:08:50.932Z,18.80
2018-08-10T22:11:18.700Z,19.10
2018-08-10T22:13:52.150Z,19.00
2018-08-10T22:16:25.560Z,19.00
2018-08-10T22:18:59.069Z,18.90
2018-08-10T22:21:26.869Z,18.90
2018-08-10T22:23:54.669Z,18.80
2018-08-10T22:26:22.487Z,18.60
2018-08-10T22:28:50.316Z,18.60
2018-08-10T22:31:18.134Z,18.90
2018-08-10T22:33:45.919Z,18.50
2018-08-10T22:36:13.652Z,18.90
2018-08-10T22:38:41.421Z,18.70
2018-08-10T22:41:09.253Z,19.00
2018-08-10T22:43:37.120Z,19.00
2018-08-10T22:46:04.989Z,18.70
2018-08-10T22:48:32.790Z,19.00
2018-08-10T22:51:00.662Z,18.80
2018-08-10T22:53:28.478Z,18.80
2018-08-10T22:55:56.304Z,18.80
2018-08-10T22:58:24.162Z,18.50
2018-08-10T23:00:51.972Z,18.60
2018-08-10T23:03:19.884Z,18.20
2018-08-10T23:05:47.715Z,18.70
2018-08-10T23:08:15.510Z,18.60
2018-08-10T23:10:43.377Z,18.50
2018-08-10T23:13:11.275Z,18.30
2018-08-10T23:15:39.136Z,17.90
2018-08-10T23:18:06.980Z,18.40
2018-08-10T23:20:34.787Z,18.20
2018-08-10T23:23:02.643Z,18.20
2018-08-10T23:25:30.457Z,18.20
2018-08-10T23:27:58.865Z,18.30
2018-08-10T23:30:26.651Z,18.30
2018-08-10T23:33:01.070Z,18.30
2018-08-10T23:35:28.963Z,18.00
2018-08-10T23:37:56.782Z,18.00
2018-08-10T23:40:24.569Z,18.30
2018-08-10T23:42:52.346Z,18.20
2018-08-10T23:45:20.085Z,18.20
2018-08-10T23:47:47.840Z,18.20
2018-08-10T23:50:16.663Z,17.90
2018-08-10T23:52:45.072Z,18.30
2018-08-10T23:55:14.715Z,18.20
2018-08-10T23:57:42.485Z,18.00
